createdAt,value
2022-08-16T00:00:22.539Z,2.58
2022-08-16T00:02:52.394Z,2.40
2022-08-16T00:05:22.739Z,2.40
2022-08-16T00:07:56.395Z,2.30
2022-08-16T00:10:26.946Z,2.42
2022-08-16T00:12:57.248Z,2.80
2022-08-16T00:15:51.468Z,2.40
2022-08-16T00:18:22.109Z,2.63
2022-08-16T00:20:57.768Z,3.13
2022-08-16T00:23:34.962Z,3.00
2022-08-16T00:26:33.893Z,3.55
2022-08-16T00:28:56.206Z,4.00
2022-08-16T00:31:24.112Z,3.83
2022-08-16T00:33:51.986Z,3.70
2022-08-16T00:36:20.369Z,2.95
2022-08-16T00:38:48.375Z,3.30
2022-08-16T00:41:17.184Z,2.70
2022-08-16T00:43:45.652Z,2.55
2022-08-16T00:46:34.975Z,2.65
2022-08-16T00:49:17.531Z,3.03
2022-08-16T00:51:55.256Z,3.17
2022-08-16T00:54:27.939Z,3.00
2022-08-16T00:56:59.723Z,3.30
2022-08-16T00:59:32.870Z,3.03
2022-08-16T01:02:30.707Z,3.55
2022-08-16T01:05:10.667Z,2.90
2022-08-16T01:07:51.193Z,2.90
2022-08-16T01:10:31.912Z,2.65
2022-08-16T01:13:21.073Z,2.70
2022-08-16T01:16:02.934Z,3.25
2022-08-16T01:18:40.507Z,3.60
2022-08-16T01:21:34.838Z,3.80
2022-08-16T01:24:52.467Z,3.30
2022-08-16T01:27:22.383Z,4.00
2022-08-16T01:30:20.355Z,3.33
2022-08-16T01:33:14.442Z,4.18
2022-08-16T01:35:53.376Z,2.90
2022-08-16T01:38:25.862Z,3.47
2022-08-16T01:41:02.659Z,2.47
2022-08-16T01:43:33.654Z,2.45
2022-08-16T01:46:37.408Z,2.20
2022-08-16T01:48:56.607Z,2.57
2022-08-16T01:51:27.640Z,3.30
2022-08-16T01:53:56.921Z,3.72
2022-08-16T01:56:28.797Z,4.75
2022-08-16T01:58:59.638Z,4.15
2022-08-16T02:01:29.483Z,4.67
2022-08-16T02:04:10.180Z,4.55
2022-08-16T02:06:46.630Z,4.95
2022-08-16T02:09:17.846Z,4.18
2022-08-16T02:11:52.958Z,3.60
2022-08-16T02:14:28.132Z,3.40
2022-08-16T02:17:02.381Z,4.07
2022-08-16T02:19:59.997Z,3.10
2022-08-16T02:22:34.888Z,3.92
2022-08-16T02:25:15.163Z,3.63
2022-08-16T02:27:45.212Z,3.73
2022-08-16T02:30:37.385Z,4.20
2022-08-16T02:33:12.096Z,3.42
2022-08-16T02:35:54.120Z,3.40
2022-08-16T02:38:31.632Z,3.97
2022-08-16T02:41:09.802Z,3.13
2022-08-16T02:43:39.805Z,3.95
2022-08-16T02:46:09.815Z,4.15
2022-08-16T02:48:39.801Z,3.95
2022-08-16T02:51:17.923Z,4.10
2022-08-16T02:53:48.694Z,4.70
2022-08-16T02:56:18.827Z,4.50
2022-08-16T02:58:50.264Z,4.70
2022-08-16T03:01:36.685Z,4.47
2022-08-16T03:04:29.612Z,4.60
2022-08-16T03:07:01.506Z,4.10
2022-08-16T03:09:39.557Z,4.65
2022-08-16T03:12:07.640Z,4.30
2022-08-16T03:14:35.791Z,4.45
2022-08-16T03:17:06.763Z,3.92
2022-08-16T03:19:48.503Z,4.13
2022-08-16T03:22:28.125Z,3.58
2022-08-16T03:25:01.808Z,3.92
2022-08-16T03:27:32.978Z,3.95
2022-08-16T03:30:16.273Z,4.72
2022-08-16T03:32:51.259Z,5.23
2022-08-16T03:35:23.928Z,4.38
2022-08-16T03:38:32.900Z,4.30
2022-08-16T03:40:57.812Z,4.97
2022-08-16T03:43:51.326Z,4.32
2022-08-16T03:46:44.845Z,3.97
2022-08-16T03:49:12.270Z,4.20
2022-08-16T03:51:42.393Z,4.32
2022-08-16T03:54:13.899Z,4.05
2022-08-16T03:56:57.807Z,4.88
2022-08-16T03:59:31.430Z,4.00
2022-08-16T04:02:10.653Z,4.43
2022-08-16T04:04:50.531Z,4.28
2022-08-16T04:07:18.383Z,4.00
2022-08-16T04:09:47.738Z,4.00
2022-08-16T04:12:53.599Z,3.70
2022-08-16T04:15:07.176Z,3.97
2022-08-16T04:17:40.559Z,4.18
2022-08-16T04:20:23.851Z,3.83
2022-08-16T04:22:59.072Z,3.80
2022-08-16T04:25:29.426Z,4.20
2022-08-16T04:27:57.126Z,3.70
2022-08-16T04:30:45.457Z,4.05
2022-08-16T04:33:15.589Z,3.90
2022-08-16T04:35:44.420Z,3.35
2022-08-16T04:38:20.792Z,3.30
2022-08-16T04:40:51.699Z,3.15
2022-08-16T04:43:21.977Z,3.70
2022-08-16T04:46:00.219Z,3.78
2022-08-16T04:48:34.215Z,3.60
2022-08-16T04:51:12.503Z,3.20
2022-08-16T04:53:48.395Z,3.55
2022-08-16T04:56:19.977Z,3.58
2022-08-16T04:58:49.094Z,4.13
2022-08-16T05:01:18.825Z,3.70
2022-08-16T05:03:59.687Z,4.13
2022-08-16T05:06:42.197Z,3.90
2022-08-16T05:09:13.786Z,4.20
2022-08-16T05:11:44.856Z,3.95
2022-08-16T05:14:20.016Z,3.90
2022-08-16T05:17:00.404Z,4.33
2022-08-16T05:19:27.958Z,3.88
2022-08-16T05:22:17.951Z,4.10
2022-08-16T05:24:49.481Z,4.00
2022-08-16T05:27:22.795Z,4.40
2022-08-16T05:30:00.949Z,3.90
2022-08-16T05:32:54.442Z,3.90
2022-08-16T05:35:24.452Z,3.83
2022-08-16T05:38:33.165Z,3.95
2022-08-16T05:41:00.467Z,4.03
2022-08-16T05:43:43.180Z,3.83
2022-08-16T05:46:28.720Z,4.07
2022-08-16T05:49:09.039Z,4.38
2022-08-16T05:51:42.343Z,3.80
2022-08-16T05:54:24.746Z,4.50
2022-08-16T05:56:56.437Z,3.97
2022-08-16T05:59:27.431Z,4.40
2022-08-16T06:01:57.514Z,4.15
2022-08-16T06:04:36.619Z,3.88
2022-08-16T06:07:24.540Z,4.03
2022-08-16T06:09:59.644Z,4.30
2022-08-16T06:12:29.925Z,4.70
2022-08-16T06:15:10.157Z,3.55
2022-08-16T06:17:44.092Z,3.72
2022-08-16T06:20:25.623Z,4.20
2022-08-16T06:23:11.627Z,3.90
2022-08-16T06:25:58.084Z,3.95
2022-08-16T06:28:36.006Z,3.92
2022-08-16T06:31:07.039Z,3.72
2022-08-16T06:33:42.337Z,3.92
2022-08-16T06:36:14.835Z,4.57
2022-08-16T06:38:55.659Z,4.30
2022-08-16T06:41:56.898Z,3.80
2022-08-16T06:44:50.618Z,3.35
2022-08-16T06:47:53.144Z,3.63
2022-08-16T06:50:22.110Z,3.07
2022-08-16T06:53:00.240Z,2.95
2022-08-16T06:55:34.171Z,2.60
2022-08-16T06:58:08.312Z,3.28
2022-08-16T07:00:38.411Z,2.90
2022-08-16T07:03:26.967Z,2.60
2022-08-16T07:05:59.461Z,3.00
2022-08-16T07:08:33.451Z,3.70
2022-08-16T07:11:01.695Z,3.60
2022-08-16T07:14:00.372Z,3.40
2022-08-16T07:16:21.280Z,3.20
2022-08-16T07:19:01.089Z,3.20
2022-08-16T07:21:46.712Z,2.72
2022-08-16T07:24:30.155Z,3.13
2022-08-16T07:27:08.474Z,1.80
2022-08-16T07:29:40.192Z,2.40
2022-08-16T07:32:10.046Z,1.50
2022-08-16T07:34:48.381Z,0.95
2022-08-16T07:37:18.313Z,1.10
2022-08-16T07:40:13.623Z,1.00
2022-08-16T07:42:44.540Z,0.87
2022-08-16T07:45:13.866Z,1.00
2022-08-16T07:47:51.159Z,0.90
2022-08-16T07:50:55.906Z,0.90
2022-08-16T07:53:08.237Z,0.85
2022-08-16T07:55:45.901Z,1.20
2022-08-16T07:58:34.764Z,0.80
2022-08-16T08:01:10.585Z,0.77
2022-08-16T08:03:48.265Z,0.60
2022-08-16T08:06:24.982Z,1.20
2022-08-16T08:08:56.946Z,0.80
2022-08-16T08:11:28.087Z,0.50
2022-08-16T08:14:03.509Z,0.70
2022-08-16T08:16:35.662Z,0.60
2022-08-16T08:19:04.973Z,0.40
2022-08-16T08:22:00.603Z,0.70
2022-08-16T08:24:33.257Z,0.45
2022-08-16T08:27:03.902Z,0.73
2022-08-16T08:29:37.775Z,1.05
2022-08-16T08:32:58.776Z,0.43
2022-08-16T08:35:03.961Z,0.80
2022-08-16T08:37:54.338Z,0.50
2022-08-16T08:40:27.665Z,0.50
2022-08-16T08:43:00.585Z,0.60
2022-08-16T08:45:48.589Z,0.50
2022-08-16T08:48:32.766Z,0.47
2022-08-16T08:51:08.804Z,0.50
2022-08-16T08:53:46.720Z,0.40
2022-08-16T08:56:32.396Z,0.50
2022-08-16T08:59:29.448Z,0.40
2022-08-16T09:01:58.759Z,0.30
2022-08-16T09:04:36.570Z,0.40
2022-08-16T09:07:07.025Z,0.30
2022-08-16T09:09:40.874Z,0.40
2022-08-16T09:12:31.096Z,0.30
2022-08-16T09:15:09.679Z,0.30
2022-08-16T09:17:53.388Z,0.40
2022-08-16T09:20:29.503Z,0.50
2022-08-16T09:22:58.922Z,0.43
2022-08-16T09:25:35.362Z,0.50
2022-08-16T09:28:12.462Z,0.60
2022-08-16T09:31:11.007Z,0.77
2022-08-16T09:33:39.905Z,0.57
2022-08-16T09:36:11.962Z,0.70
2022-08-16T09:38:59.571Z,0.80
2022-08-16T09:41:28.223Z,0.93
2022-08-16T09:44:00.535Z,0.90
2022-08-16T09:46:44.609Z,0.90
2022-08-16T09:49:14.441Z,0.82
2022-08-16T09:51:43.356Z,0.50
2022-08-16T09:54:17.119Z,0.30
2022-08-16T09:56:53.351Z,0.20
2022-08-16T09:59:23.870Z,0.20
2022-08-16T10:01:54.563Z,0.20
2022-08-16T10:04:31.499Z,0.20
2022-08-16T10:07:15.478Z,0.20
2022-08-16T10:09:55.002Z,0.20
2022-08-16T10:12:55.434Z,0.20
2022-08-16T10:15:30.166Z,0.10
2022-08-16T10:18:00.844Z,0.10
2022-08-16T10:20:38.526Z,0.20
2022-08-16T10:23:09.937Z,0.20
2022-08-16T10:27:18.289Z,0.10
2022-08-16T10:28:39.655Z,0.10
2022-08-16T10:31:12.077Z,0.20
2022-08-16T10:33:46.108Z,0.10
2022-08-16T10:36:39.405Z,0.20
2022-08-16T10:39:04.482Z,3.10
2022-08-16T10:41:32.937Z,0.75
2022-08-16T10:44:00.894Z,0.25
2022-08-16T10:46:39.600Z,0.20
2022-08-16T10:49:12.516Z,0.20
2022-08-16T10:52:01.846Z,0.30
2022-08-16T10:54:32.213Z,0.20
2022-08-16T10:57:04.246Z,0.20
2022-08-16T10:59:46.946Z,0.20
2022-08-16T11:02:58.966Z,0.20
2022-08-16T11:05:14.299Z,0.20
2022-08-16T11:07:51.975Z,0.40
2022-08-16T11:19:04.184Z,0.20
2022-08-16T11:21:37.618Z,0.10
2022-08-16T11:24:39.424Z,0.10
2022-08-16T11:27:23.482Z,0.10
2022-08-16T11:29:55.248Z,0.20
2022-08-16T11:32:30.376Z,0.20
2022-08-16T11:35:14.098Z,0.20
2022-08-16T11:38:23.219Z,0.30
2022-08-16T11:40:52.285Z,0.30
2022-08-16T11:43:24.971Z,0.40
2022-08-16T11:45:56.854Z,0.25
2022-08-16T11:48:27.040Z,0.20
2022-08-16T11:50:56.235Z,0.22
2022-08-16T11:53:24.819Z,0.20
2022-08-16T11:55:54.626Z,0.20
2022-08-16T11:58:25.587Z,0.20
2022-08-16T12:00:54.907Z,0.20
2022-08-16T12:03:34.312Z,0.20
2022-08-16T12:06:25.438Z,0.30
2022-08-16T12:09:01.118Z,0.30
2022-08-16T12:11:32.099Z,0.20
2022-08-16T12:14:05.475Z,0.40
2022-08-16T12:16:36.185Z,0.38
2022-08-16T12:19:10.365Z,0.30
2022-08-16T12:21:58.420Z,0.17
2022-08-16T12:24:27.936Z,0.40
2022-08-16T12:26:55.914Z,0.32
2022-08-16T12:29:25.840Z,0.50
2022-08-16T12:32:01.650Z,0.50
2022-08-16T12:34:50.559Z,0.30
2022-08-16T12:37:24.473Z,0.50
2022-08-16T12:39:56.404Z,0.50
2022-08-16T12:42:34.753Z,0.50
2022-08-16T12:45:06.473Z,0.50
2022-08-16T12:48:09.925Z,0.30
2022-08-16T12:50:41.137Z,0.40
2022-08-16T12:53:09.510Z,0.22
2022-08-16T12:55:41.885Z,0.30
2022-08-16T12:58:13.560Z,0.20
2022-08-16T13:00:57.944Z,0.25
2022-08-16T13:03:26.944Z,24.92
2022-08-16T13:05:55.910Z,0.77
2022-08-16T13:08:27.569Z,0.20
2022-08-16T13:10:59.877Z,0.30
2022-08-16T13:13:27.418Z,0.20
2022-08-16T13:16:03.724Z,0.20
2022-08-16T13:18:36.170Z,0.20
2022-08-16T13:21:06.627Z,0.25
2022-08-16T13:23:36.058Z,0.37
2022-08-16T13:26:12.840Z,0.20
2022-08-16T13:28:47.758Z,0.32
2022-08-16T13:31:16.742Z,0.20
2022-08-16T13:33:44.589Z,0.20
2022-08-16T13:36:32.145Z,0.23
2022-08-16T13:39:01.954Z,0.20
2022-08-16T13:41:30.032Z,0.20
2022-08-16T13:44:00.852Z,0.10
2022-08-16T13:46:32.507Z,0.20
2022-08-16T13:49:01.667Z,0.20
2022-08-16T13:51:30.935Z,0.20
2022-08-16T13:54:03.851Z,0.20
2022-08-16T13:56:38.079Z,0.20
2022-08-16T13:59:19.530Z,0.40
2022-08-16T14:01:55.624Z,0.20
2022-08-16T14:04:29.269Z,0.30
2022-08-16T14:06:58.134Z,0.20
2022-08-16T14:09:27.192Z,0.25
2022-08-16T14:12:00.778Z,0.20
2022-08-16T14:14:30.017Z,0.20
2022-08-16T14:16:59.787Z,0.30
2022-08-16T14:19:29.564Z,0.20
2022-08-16T14:22:13.646Z,0.30
2022-08-16T14:24:45.266Z,0.30
2022-08-16T14:27:21.202Z,0.20
2022-08-16T14:29:50.997Z,0.30
2022-08-16T14:32:33.034Z,0.28
2022-08-16T14:35:07.679Z,0.20
2022-08-16T14:37:36.337Z,0.30
2022-08-16T14:40:09.545Z,0.20
2022-08-16T14:42:37.970Z,0.20
2022-08-16T14:45:08.968Z,0.20
2022-08-16T14:47:38.597Z,0.20
2022-08-16T14:50:09.196Z,0.20
2022-08-16T14:52:55.210Z,0.20
2022-08-16T14:55:26.114Z,0.20
2022-08-16T14:57:54.814Z,0.20
2022-08-16T15:00:33.270Z,0.20
2022-08-16T15:03:09.641Z,0.30
2022-08-16T15:05:39.567Z,0.20
2022-08-16T15:08:07.540Z,0.20
2022-08-16T15:10:37.314Z,0.38
2022-08-16T15:13:09.643Z,0.20
2022-08-16T15:15:39.568Z,0.40
2022-08-16T15:18:11.782Z,0.20
2022-08-16T15:20:41.513Z,0.40
2022-08-16T15:23:10.435Z,0.30
2022-08-16T15:25:43.353Z,0.30
2022-08-16T15:28:23.551Z,0.50
2022-08-16T15:31:03.853Z,0.47
2022-08-16T15:33:34.941Z,0.30
2022-08-16T15:36:04.640Z,0.52
2022-08-16T15:38:57.018Z,0.30
2022-08-16T15:41:49.642Z,0.60
2022-08-16T15:44:22.437Z,0.40
2022-08-16T15:46:58.583Z,0.38
2022-08-16T15:49:34.918Z,0.30
2022-08-16T15:52:10.560Z,0.30
2022-08-16T15:54:52.572Z,0.40
2022-08-16T15:57:26.565Z,0.30
2022-08-16T15:59:55.912Z,0.40
2022-08-16T16:02:30.921Z,0.43
2022-08-16T16:05:09.950Z,0.50
2022-08-16T16:07:40.735Z,0.30
2022-08-16T16:10:13.002Z,0.40
2022-08-16T16:12:53.484Z,0.40
2022-08-16T16:15:31.049Z,0.60
2022-08-16T16:17:59.876Z,0.43
2022-08-16T16:20:46.331Z,0.45
2022-08-16T16:23:17.353Z,0.40
2022-08-16T16:25:45.736Z,0.70
2022-08-16T16:28:51.168Z,0.40
2022-08-16T16:31:08.426Z,0.40
2022-08-16T16:33:39.907Z,0.40
2022-08-16T16:36:11.168Z,0.40
2022-08-16T16:38:41.911Z,0.40
2022-08-16T16:41:11.505Z,0.50
2022-08-16T16:43:43.084Z,0.40
2022-08-16T16:46:40.387Z,0.35
2022-08-16T16:49:08.570Z,0.40
2022-08-16T16:51:40.933Z,0.40
2022-08-16T16:54:09.898Z,0.30
2022-08-16T16:56:45.990Z,0.40
2022-08-16T16:59:20.137Z,0.40
2022-08-16T17:02:00.404Z,0.32
2022-08-16T17:04:38.018Z,0.30
2022-08-16T17:07:10.565Z,0.30
2022-08-16T17:09:41.102Z,0.50
2022-08-16T17:12:12.119Z,0.60
2022-08-16T17:14:50.486Z,0.30
2022-08-16T17:17:18.156Z,0.30
2022-08-16T17:19:46.996Z,0.30
2022-08-16T17:22:19.913Z,0.35
2022-08-16T17:24:52.655Z,0.30
2022-08-16T17:27:32.969Z,0.30
2022-08-16T17:30:16.493Z,0.40
2022-08-16T17:33:04.991Z,0.60
2022-08-16T17:35:34.763Z,0.40
2022-08-16T17:38:06.399Z,0.38
2022-08-16T17:40:45.883Z,0.20
2022-08-16T17:43:20.844Z,0.30
2022-08-16T17:45:48.836Z,0.50
2022-08-16T17:48:17.117Z,0.30
2022-08-16T17:50:46.187Z,0.40
2022-08-16T17:53:14.744Z,0.40
2022-08-16T17:55:47.425Z,0.30
2022-08-16T17:58:23.555Z,0.37
2022-08-16T18:00:56.042Z,0.43
2022-08-16T18:04:06.996Z,0.40
2022-08-16T18:06:16.806Z,0.38
2022-08-16T18:08:49.046Z,0.40
2022-08-16T18:11:25.662Z,0.37
2022-08-16T18:13:54.660Z,0.50
2022-08-16T18:16:22.717Z,0.40
2022-08-16T18:18:50.334Z,0.38
2022-08-16T18:21:36.746Z,0.40
2022-08-16T18:24:04.910Z,0.30
2022-08-16T18:26:32.565Z,4.63
2022-08-16T18:29:00.411Z,0.60
2022-08-16T18:31:28.120Z,0.50
2022-08-16T18:33:56.405Z,0.57
2022-08-16T18:36:25.373Z,0.60
2022-08-16T18:38:53.985Z,0.60
2022-08-16T18:41:23.859Z,0.70
2022-08-16T18:44:22.233Z,0.60
2022-08-16T18:46:46.027Z,0.45
2022-08-16T18:49:19.481Z,0.50
2022-08-16T18:51:47.365Z,0.40
2022-08-16T18:54:18.505Z,0.95
2022-08-16T18:56:56.099Z,0.90
2022-08-16T18:59:26.598Z,0.60
2022-08-16T19:01:56.953Z,0.57
2022-08-16T19:04:56.955Z,0.57
2022-08-16T19:07:17.175Z,0.50
2022-08-16T19:09:44.790Z,0.40
2022-08-16T19:12:15.898Z,0.60
2022-08-16T19:14:45.655Z,0.57
2022-08-16T19:17:13.332Z,0.45
2022-08-16T19:19:40.875Z,0.47
2022-08-16T19:22:08.498Z,0.40
2022-08-16T19:24:36.094Z,0.40
2022-08-16T19:27:10.217Z,0.40
2022-08-16T19:29:37.879Z,0.57
2022-08-16T19:32:16.516Z,0.73
2022-08-16T19:34:44.148Z,0.50
2022-08-16T19:37:11.733Z,0.60
2022-08-16T19:39:39.649Z,0.60
2022-08-16T19:42:16.240Z,0.63
2022-08-16T19:44:46.780Z,0.80
2022-08-16T19:47:15.285Z,0.65
2022-08-16T19:49:43.279Z,0.68
2022-08-16T19:52:21.610Z,0.70
2022-08-16T19:54:52.227Z,1.10
2022-08-16T19:57:21.613Z,0.68
2022-08-16T19:59:49.930Z,0.70
2022-08-16T20:02:36.224Z,0.60
2022-08-16T20:05:05.441Z,0.73
2022-08-16T20:07:33.030Z,1.33
2022-08-16T20:10:00.888Z,1.38
2022-08-16T20:12:28.383Z,0.80
2022-08-16T20:14:55.970Z,0.90
2022-08-16T20:17:23.508Z,1.20
2022-08-16T20:19:51.193Z,0.75
2022-08-16T20:22:42.150Z,0.75
2022-08-16T20:25:09.440Z,0.75
2022-08-16T20:27:37.763Z,0.82
2022-08-16T20:30:06.699Z,0.70
2022-08-16T20:32:36.132Z,0.70
2022-08-16T20:35:07.645Z,0.75
2022-08-16T20:37:37.351Z,0.75
2022-08-16T20:40:27.317Z,0.80
2022-08-16T20:43:09.932Z,0.77
2022-08-16T20:45:39.134Z,0.77
2022-08-16T20:48:07.401Z,0.70
2022-08-16T20:50:35.900Z,0.63
2022-08-16T20:53:04.887Z,0.70
2022-08-16T20:55:35.844Z,0.77
2022-08-16T20:58:03.728Z,0.70
2022-08-16T21:00:33.601Z,0.52
2022-08-16T21:03:06.625Z,1.10
2022-08-16T21:05:34.435Z,1.00
2022-08-16T21:08:03.921Z,0.80
2022-08-16T21:10:50.255Z,0.80
2022-08-16T21:13:18.176Z,0.88
2022-08-16T21:15:45.791Z,0.70
2022-08-16T21:18:13.428Z,0.90
2022-08-16T21:20:41.355Z,0.90
2022-08-16T21:23:11.274Z,0.80
2022-08-16T21:25:57.960Z,0.80
2022-08-16T21:28:41.020Z,0.73
2022-08-16T21:31:16.024Z,0.80
2022-08-16T21:33:45.468Z,0.80
2022-08-16T21:36:37.053Z,0.80
2022-08-16T21:39:06.283Z,1.02
2022-08-16T21:41:35.547Z,0.70
2022-08-16T21:44:09.066Z,1.02
2022-08-16T21:46:36.725Z,1.00
2022-08-16T21:49:05.920Z,0.90
2022-08-16T21:51:34.694Z,1.10
2022-08-16T21:54:02.749Z,1.33
2022-08-16T21:56:31.192Z,1.10
2022-08-16T21:58:58.743Z,1.20
2022-08-16T22:01:26.721Z,1.02
2022-08-16T22:04:35.514Z,0.88
2022-08-16T22:06:42.989Z,0.80
2022-08-16T22:09:15.320Z,0.98
2022-08-16T22:11:45.938Z,1.07
2022-08-16T22:14:22.959Z,1.00
2022-08-16T22:16:50.616Z,1.23
2022-08-16T22:19:18.447Z,1.10
2022-08-16T22:21:46.050Z,1.10
2022-08-16T22:24:13.574Z,1.00
2022-08-16T22:26:43.528Z,1.05
2022-08-16T22:29:14.035Z,1.10
2022-08-16T22:31:43.341Z,1.02
2022-08-16T22:34:12.026Z,1.23
2022-08-16T22:36:40.414Z,1.20
2022-08-16T22:39:12.927Z,1.20
2022-08-16T22:41:42.398Z,1.10
2022-08-16T22:44:10.122Z,1.40
2022-08-16T22:46:37.760Z,1.42
2022-08-16T22:49:06.143Z,1.70
2022-08-16T22:51:34.725Z,1.83
2022-08-16T22:54:34.016Z,1.65
2022-08-16T22:56:50.644Z,1.60
2022-08-16T22:59:18.194Z,1.40
2022-08-16T23:01:45.952Z,1.30
2022-08-16T23:04:13.555Z,1.40
2022-08-16T23:06:41.113Z,1.60
2022-08-16T23:09:09.224Z,1.63
2022-08-16T23:11:37.058Z,1.77
2022-08-16T23:14:04.689Z,2.33
2022-08-16T23:16:34.609Z,2.60
2022-08-16T23:19:05.170Z,1.80
2022-08-16T23:21:33.649Z,1.60
2022-08-16T23:24:01.573Z,2.08
2022-08-16T23:26:44.501Z,1.43
2022-08-16T23:29:23.333Z,1.80
2022-08-16T23:32:08.717Z,1.42
2022-08-16T23:34:36.783Z,1.90
2022-08-16T23:37:04.309Z,1.30
2022-08-16T23:39:32.173Z,1.20
2022-08-16T23:41:59.751Z,1.10
2022-08-16T23:44:56.779Z,1.33
2022-08-16T23:47:15.085Z,1.38
2022-08-16T23:49:59.064Z,1.15
2022-08-16T23:52:54.856Z,1.23
2022-08-16T23:55:18.059Z,1.08
2022-08-16T23:57:46.347Z,1.17
